Time;durP1;ratioP1;P1;durP2;ratioP2;P2;SDS_P1;SDS_P2;PMS_P1;PMS_P2;Temp;Humidity;BMP_temperature;BMP_pressure;BME280_temperature;BME280_humidity;BME280_pressure;Samples;Min_cycle;Max_cycle;Signal;HPM_P1;HPM_P2
2023/08/01 00:01:38;;;;;;;;;;;20.40;87.70;;;;;;5002642;28;19938;-77
2023/08/01 00:04:05;;;;;;;;;;;20.40;87.80;;;;;;5002436;28;19937;-76
2023/08/01 00:06:32;;;;;;;;;;;20.40;87.80;;;;;;5002817;28;20388;-75
2023/08/01 00:08:58;;;;;;;;;;;20.40;88.00;;;;;;5004738;28;19929;-76
2023/08/01 00:11:25;;;;;;;;;;;20.40;88.10;;;;;;5003038;28;20422;-76
2023/08/01 00:13:53;;;;;;;;;;;20.30;88.10;;;;;;5004038;28;19929;-75
2023/08/01 00:16:19;;;;;;;;;;;20.30;88.30;;;;;;4993511;28;19937;-76
2023/08/01 00:18:45;;;;;;;;;;;20.30;88.40;;;;;;4981417;28;19930;-77
2023/08/01 00:21:11;;;;;;;;;;;20.30;88.50;;;;;;4981642;28;19933;-76
2023/08/01 00:23:38;;;;;;;;;;;20.30;88.70;;;;;;4983945;28;19941;-77
2023/08/01 00:26:04;;;;;;;;;;;20.30;88.80;;;;;;4984294;28;19930;-76
2023/08/01 00:28:31;;;;;;;;;;;20.20;88.80;;;;;;4991536;28;19961;-77
2023/08/01 00:31:06;;;;;;;;;;;20.20;88.90;;;;;;5004516;28;19992;-76
2023/08/01 00:33:33;;;;;;;;;;;20.20;89.00;;;;;;5010159;28;20386;-76
2023/08/01 00:35:59;;;;;;;;;;;20.20;89.00;;;;;;4999161;28;19937;-76
2023/08/01 00:38:26;;;;;;;;;;;20.20;89.10;;;;;;5003018;28;19929;-76
2023/08/01 00:40:53;;;;;;;;;;;20.20;89.20;;;;;;5004657;28;19935;-76
2023/08/01 00:43:19;;;;;;;;;;;20.10;89.10;;;;;;5004059;28;19930;-76
2023/08/01 00:45:46;;;;;;;;;;;20.10;89.10;;;;;;5000526;28;19936;-77
2023/08/01 00:48:14;;;;;;;;;;;20.10;89.20;;;;;;4985193;28;19969;-76
2023/08/01 00:50:41;;;;;;;;;;;20.10;89.30;;;;;;4980238;28;20328;-76
2023/08/01 00:53:07;;;;;;;;;;;20.10;89.40;;;;;;4978294;28;20989;-76
2023/08/01 00:55:35;;;;;;;;;;;20.10;89.40;;;;;;4986254;28;19929;-76
2023/08/01 00:58:01;;;;;;;;;;;20.10;89.50;;;;;;4982692;28;19929;-76
2023/08/01 01:00:28;;;;;;;;;;;20.00;89.50;;;;;;4987973;28;19937;-76
2023/08/01 01:02:54;;;;;;;;;;;20.00;89.60;;;;;;4986252;28;19936;-76
2023/08/01 01:05:23;;;;;;;;;;;20.00;89.70;;;;;;4984076;28;19936;-76
2023/08/01 01:07:50;;;;;;;;;;;20.00;89.80;;;;;;4985638;28;20802;-76
2023/08/01 01:10:17;;;;;;;;;;;20.00;89.90;;;;;;4983194;28;19937;-76
2023/08/01 01:12:44;;;;;;;;;;;19.90;89.90;;;;;;4983746;28;19933;-76
2023/08/01 01:15:10;;;;;;;;;;;19.90;90.00;;;;;;4986422;28;19964;-76
2023/08/01 01:17:37;;;;;;;;;;;19.90;90.00;;;;;;4988162;28;20339;-75
2023/08/01 01:20:03;;;;;;;;;;;19.90;90.10;;;;;;4983233;28;19972;-76
2023/08/01 01:22:32;;;;;;;;;;;19.90;90.10;;;;;;4984855;28;20296;-76
2023/08/01 01:24:59;;;;;;;;;;;19.90;90.10;;;;;;4987615;28;19930;-76
2023/08/01 01:27:26;;;;;;;;;;;19.90;90.20;;;;;;4982009;28;19929;-76
2023/08/01 01:29:52;;;;;;;;;;;19.90;90.20;;;;;;4981490;28;19936;-75
2023/08/01 01:32:19;;;;;;;;;;;19.80;90.20;;;;;;4984184;28;19936;-76
2023/08/01 01:34:46;;;;;;;;;;;19.80;90.30;;;;;;4989344;28;20626;-76
2023/08/01 01:37:12;;;;;;;;;;;19.80;90.30;;;;;;4984392;28;19929;-76
2023/08/01 01:39:40;;;;;;;;;;;19.80;90.30;;;;;;4987019;28;19937;-76
2023/08/01 01:42:07;;;;;;;;;;;19.80;90.40;;;;;;4981849;28;19937;-75
2023/08/01 01:44:34;;;;;;;;;;;19.80;90.50;;;;;;4982759;28;19933;-76
2023/08/01 01:47:00;;;;;;;;;;;19.70;90.50;;;;;;4981214;28;19933;-76
2023/08/01 01:49:27;;;;;;;;;;;19.70;90.50;;;;;;4987125;28;19941;-76
2023/08/01 01:51:53;;;;;;;;;;;19.70;90.60;;;;;;4980759;28;20404;-76
2023/08/01 01:54:20;;;;;;;;;;;19.70;90.60;;;;;;4984850;28;19940;-76
2023/08/01 01:56:48;;;;;;;;;;;19.70;90.70;;;;;;4985864;28;20384;-76
2023/08/01 01:59:14;;;;;;;;;;;19.70;90.80;;;;;;4984247;28;20020;-76
2023/08/01 02:01:41;;;;;;;;;;;19.60;90.80;;;;;;4982739;28;19940;-76
2023/08/01 02:04:08;;;;;;;;;;;19.60;90.90;;;;;;4984170;28;20526;-76
2023/08/01 02:06:34;;;;;;;;;;;19.60;90.90;;;;;;4983353;28;19941;-76
2023/08/01 02:09:04;;;;;;;;;;;19.60;90.90;;;;;;4984608;28;21441;-76
2023/08/01 02:11:30;;;;;;;;;;;19.60;91.00;;;;;;4981808;28;20186;-77
2023/08/01 02:13:58;;;;;;;;;;;19.60;91.00;;;;;;4984505;28;19937;-76
2023/08/01 02:16:25;;;;;;;;;;;19.60;91.10;;;;;;4981585;28;19949;-76
2023/08/01 02:18:51;;;;;;;;;;;19.50;91.00;;;;;;4983308;28;19930;-77
2023/08/01 02:21:18;;;;;;;;;;;19.50;91.00;;;;;;4983808;28;19930;-76
2023/08/01 02:23:44;;;;;;;;;;;19.60;91.40;;;;;;4984809;28;19933;-77
2023/08/01 02:26:11;;;;;;;;;;;19.50;91.10;;;;;;4985184;28;20396;-76
2023/08/01 02:28:38;;;;;;;;;;;19.60;91.20;;;;;;4985387;28;19930;-77
2023/08/01 02:31:06;;;;;;;;;;;19.50;91.20;;;;;;4985902;28;19930;-76
2023/08/01 02:33:32;;;;;;;;;;;19.50;91.20;;;;;;4986110;28;19934;-77
2023/08/01 02:35:59;;;;;;;;;;;19.50;91.30;;;;;;4981468;28;19934;-76
2023/08/01 02:38:25;;;;;;;;;;;19.50;91.30;;;;;;4982765;28;19940;-76
2023/08/01 02:40:52;;;;;;;;;;;19.50;91.30;;;;;;4979303;28;20028;-76
2023/08/01 02:43:18;;;;;;;;;;;19.40;91.30;;;;;;4981937;28;19926;-77
2023/08/01 02:45:46;;;;;;;;;;;19.40;91.30;;;;;;4983698;28;19934;-77
2023/08/01 02:48:14;;;;;;;;;;;19.40;91.40;;;;;;4984289;28;19937;-77
2023/08/01 02:50:40;;;;;;;;;;;19.40;91.40;;;;;;4983118;28;19929;-76
2023/08/01 02:53:07;;;;;;;;;;;19.40;91.40;;;;;;4980091;28;20566;-77
2023/08/01 02:55:33;;;;;;;;;;;19.40;91.50;;;;;;4984836;28;19930;-76
2023/08/01 02:58:00;;;;;;;;;;;19.40;91.50;;;;;;4989287;28;20303;-76
2023/08/01 03:00:27;;;;;;;;;;;19.40;91.50;;;;;;4983056;28;20020;-76
2023/08/01 03:02:53;;;;;;;;;;;19.40;91.60;;;;;;4985124;28;19930;-77
2023/08/01 03:05:21;;;;;;;;;;;19.40;91.60;;;;;;4986871;28;19930;-76
2023/08/01 03:07:48;;;;;;;;;;;19.40;91.60;;;;;;4988213;28;20322;-76
2023/08/01 03:10:15;;;;;;;;;;;19.40;91.60;;;;;;4984857;28;20414;-76
2023/08/01 03:12:41;;;;;;;;;;;19.40;91.60;;;;;;4985083;28;19954;-75
2023/08/01 03:15:09;;;;;;;;;;;19.40;91.60;;;;;;4988294;28;19930;-76
2023/08/01 03:17:35;;;;;;;;;;;19.30;91.60;;;;;;4985736;28;19973;-76
2023/08/01 03:20:02;;;;;;;;;;;19.30;91.60;;;;;;4984519;28;19930;-76
2023/08/01 03:22:30;;;;;;;;;;;19.30;91.70;;;;;;4984610;28;19945;-76
2023/08/01 03:24:57;;;;;;;;;;;19.30;91.70;;;;;;4982968;28;19929;-76
2023/08/01 03:27:24;;;;;;;;;;;19.30;91.80;;;;;;4983276;28;19961;-76
2023/08/01 03:29:51;;;;;;;;;;;19.30;91.80;;;;;;4982246;28;20051;-76
2023/08/01 03:32:17;;;;;;;;;;;19.30;91.90;;;;;;4984942;28;20412;-76
2023/08/01 03:34:44;;;;;;;;;;;19.30;91.90;;;;;;4980959;28;20466;-75
2023/08/01 03:37:10;;;;;;;;;;;19.30;92.00;;;;;;4978401;28;20303;-76
2023/08/01 03:39:38;;;;;;;;;;;19.20;92.00;;;;;;4983168;28;20574;-77
2023/08/01 03:42:05;;;;;;;;;;;19.20;92.00;;;;;;4980788;28;20554;-76
2023/08/01 03:44:32;;;;;;;;;;;19.20;92.00;;;;;;4983764;28;19934;-76
2023/08/01 03:46:58;;;;;;;;;;;19.20;92.00;;;;;;4982214;28;19937;-76
2023/08/01 03:49:25;;;;;;;;;;;19.20;92.00;;;;;;4984904;28;19933;-76
2023/08/01 03:51:52;;;;;;;;;;;19.20;92.00;;;;;;4982784;28;19930;-76
2023/08/01 03:54:18;;;;;;;;;;;19.20;92.00;;;;;;4983206;28;19930;-77
2023/08/01 03:56:46;;;;;;;;;;;19.20;92.10;;;;;;4976286;28;19934;-76
2023/08/01 03:59:13;;;;;;;;;;;19.20;92.00;;;;;;4985477;28;19930;-76
2023/08/01 04:01:40;;;;;;;;;;;19.20;92.00;;;;;;4981391;28;19933;-76
2023/08/01 04:04:07;;;;;;;;;;;19.20;92.00;;;;;;4985215;28;19929;-76
2023/08/01 04:06:34;;;;;;;;;;;19.20;92.00;;;;;;4983821;28;19954;-77
2023/08/01 04:09:00;;;;;;;;;;;19.20;92.00;;;;;;4983823;28;20125;-77
2023/08/01 04:11:29;;;;;;;;;;;19.10;92.00;;;;;;4983614;28;19930;-76
2023/08/01 04:13:57;;;;;;;;;;;19.10;92.00;;;;;;4981532;28;20956;-76
2023/08/01 04:16:24;;;;;;;;;;;19.10;92.00;;;;;;4983140;28;19929;-75
2023/08/01 04:18:50;;;;;;;;;;;19.10;92.10;;;;;;4983012;28;19929;-77
2023/08/01 04:21:17;;;;;;;;;;;19.10;92.10;;;;;;4982888;28;20290;-77
2023/08/01 04:23:43;;;;;;;;;;;19.10;92.10;;;;;;4981453;28;19934;-76
2023/08/01 04:26:10;;;;;;;;;;;19.10;92.10;;;;;;4979715;28;19930;-76
2023/08/01 04:28:37;;;;;;;;;;;19.10;92.10;;;;;;4982098;28;19953;-77
2023/08/01 04:31:04;;;;;;;;;;;19.10;92.40;;;;;;4983149;28;19937;-75
2023/08/01 04:33:31;;;;;;;;;;;19.00;92.10;;;;;;4983692;28;19934;-76
2023/08/01 04:35:58;;;;;;;;;;;19.10;92.10;;;;;;4979153;28;19937;-76
2023/08/01 04:38:24;;;;;;;;;;;19.00;92.10;;;;;;4979695;28;19965;-75
2023/08/01 04:40:51;;;;;;;;;;;19.00;92.10;;;;;;4980756;28;19934;-76
2023/08/01 04:43:17;;;;;;;;;;;19.00;92.20;;;;;;4979247;28;19930;-76
2023/08/01 04:45:44;;;;;;;;;;;19.00;92.30;;;;;;4982131;28;19930;-76
2023/08/01 04:48:12;;;;;;;;;;;19.00;92.30;;;;;;4978711;28;19929;-76
2023/08/01 04:50:38;;;;;;;;;;;19.00;92.40;;;;;;4981608;28;19930;-76
2023/08/01 04:53:06;;;;;;;;;;;19.00;92.40;;;;;;4981353;28;19940;-77
2023/08/01 04:55:32;;;;;;;;;;;19.00;92.50;;;;;;4980863;28;20615;-76
2023/08/01 04:57:59;;;;;;;;;;;19.00;92.50;;;;;;4982164;28;20438;-76
2023/08/01 05:00:25;;;;;;;;;;;19.00;92.50;;;;;;4981168;28;19947;-74
2023/08/01 05:02:52;;;;;;;;;;;19.00;92.60;;;;;;4980262;28;20025;-75
2023/08/01 05:05:20;;;;;;;;;;;19.00;92.60;;;;;;4979130;28;20467;-76
2023/08/01 05:07:47;;;;;;;;;;;18.90;92.90;;;;;;4981489;28;19930;-75
2023/08/01 05:10:13;;;;;;;;;;;18.90;92.60;;;;;;4979043;28;19956;-76
2023/08/01 05:12:40;;;;;;;;;;;18.90;92.70;;;;;;4976128;28;19934;-75
2023/08/01 05:15:07;;;;;;;;;;;18.90;92.70;;;;;;4979530;28;19934;-74
2023/08/01 05:17:33;;;;;;;;;;;18.90;92.70;;;;;;4980418;28;19930;-76
2023/08/01 05:20:00;;;;;;;;;;;18.90;92.70;;;;;;4973803;28;19930;-75
2023/08/01 05:22:28;;;;;;;;;;;18.90;92.70;;;;;;4975641;28;19941;-76
2023/08/01 05:24:54;;;;;;;;;;;18.90;92.70;;;;;;4978270;28;19934;-76
2023/08/01 05:27:21;;;;;;;;;;;18.90;92.70;;;;;;4980819;28;19926;-75
2023/08/01 05:29:48;;;;;;;;;;;18.90;92.80;;;;;;4980918;28;19937;-76
2023/08/01 05:32:14;;;;;;;;;;;18.80;92.80;;;;;;4981162;28;20410;-76
2023/08/01 05:34:41;;;;;;;;;;;18.80;92.80;;;;;;4981266;28;19937;-77
2023/08/01 05:37:07;;;;;;;;;;;18.80;92.80;;;;;;4981949;28;19946;-76
2023/08/01 05:39:35;;;;;;;;;;;18.80;92.80;;;;;;4982040;28;19930;-76
2023/08/01 05:42:02;;;;;;;;;;;18.80;93.20;;;;;;4984838;28;19937;-77
2023/08/01 05:44:28;;;;;;;;;;;18.80;92.90;;;;;;4981299;28;19945;-76
2023/08/01 05:46:55;;;;;;;;;;;18.80;92.90;;;;;;4983197;28;19925;-76
2023/08/01 05:49:21;;;;;;;;;;;18.80;92.90;;;;;;4984597;28;19937;-75
2023/08/01 05:51:48;;;;;;;;;;;18.80;92.90;;;;;;4981568;28;19930;-76
2023/08/01 05:54:14;;;;;;;;;;;18.80;92.90;;;;;;4980379;28;19937;-76
2023/08/01 05:56:42;;;;;;;;;;;18.80;93.00;;;;;;4983914;28;19930;-76
2023/08/01 05:59:09;;;;;;;;;;;18.80;93.00;;;;;;4984984;28;19930;-76
2023/08/01 06:01:36;;;;;;;;;;;18.80;93.00;;;;;;4982877;28;19926;-76
2023/08/01 06:04:02;;;;;;;;;;;18.80;93.00;;;;;;4982082;28;19930;-76
2023/08/01 06:06:29;;;;;;;;;;;18.80;93.10;;;;;;4980640;28;19929;-76
2023/08/01 06:08:55;;;;;;;;;;;18.80;93.20;;;;;;4980493;28;19930;-75
2023/08/01 06:11:22;;;;;;;;;;;18.80;93.20;;;;;;4982111;28;19936;-75
2023/08/01 06:13:50;;;;;;;;;;;18.80;93.30;;;;;;4982232;28;19926;-76
2023/08/01 06:16:16;;;;;;;;;;;18.70;93.40;;;;;;4976550;28;19934;-76
2023/08/01 06:18:43;;;;;;;;;;;18.70;93.40;;;;;;4978324;28;19930;-76
2023/08/01 06:21:10;;;;;;;;;;;18.70;93.40;;;;;;4976571;28;19941;-76
2023/08/01 06:23:36;;;;;;;;;;;18.70;93.50;;;;;;4981131;28;19930;-75
2023/08/01 06:26:03;;;;;;;;;;;18.70;93.50;;;;;;4977821;28;19945;-75
2023/08/01 06:28:30;;;;;;;;;;;18.70;93.60;;;;;;4981219;28;19936;-75
2023/08/01 06:30:58;;;;;;;;;;;18.70;93.70;;;;;;4981590;28;20052;-74
2023/08/01 06:33:25;;;;;;;;;;;18.70;93.80;;;;;;4980746;28;19933;-75
2023/08/01 06:35:51;;;;;;;;;;;18.70;93.90;;;;;;4979540;28;19930;-74
2023/08/01 06:38:18;;;;;;;;;;;18.60;93.90;;;;;;4980809;28;19930;-75
2023/08/01 06:40:44;;;;;;;;;;;18.60;94.00;;;;;;4979633;28;19963;-75
2023/08/01 06:43:11;;;;;;;;;;;18.60;94.00;;;;;;4977346;28;19936;-75
2023/08/01 06:45:38;;;;;;;;;;;18.60;94.10;;;;;;4979724;28;20423;-74
2023/08/01 06:48:06;;;;;;;;;;;18.60;94.30;;;;;;4980685;28;19934;-75
2023/08/01 06:50:32;;;;;;;;;;;18.50;94.30;;;;;;4984755;28;19929;-75
2023/08/01 06:53:00;;;;;;;;;;;18.50;94.40;;;;;;4977075;28;19934;-75
2023/08/01 06:55:26;;;;;;;;;;;18.50;94.80;;;;;;4982859;28;20387;-75
2023/08/01 06:57:53;;;;;;;;;;;18.50;94.50;;;;;;4982315;28;19929;-75
2023/08/01 07:00:19;;;;;;;;;;;18.50;94.60;;;;;;4974347;28;19936;-74
2023/08/01 07:02:46;;;;;;;;;;;18.50;94.60;;;;;;4972197;28;20250;-78
2023/08/01 07:05:14;;;;;;;;;;;18.50;94.60;;;;;;4978442;28;19937;-75
2023/08/01 07:07:41;;;;;;;;;;;18.50;94.60;;;;;;4980340;28;19968;-77
2023/08/01 07:10:08;;;;;;;;;;;18.50;94.70;;;;;;4980692;28;19940;-75
2023/08/01 07:12:34;;;;;;;;;;;18.50;94.80;;;;;;4976546;28;19941;-76
2023/08/01 07:15:01;;;;;;;;;;;18.40;94.70;;;;;;4979595;28;19930;-76
2023/08/01 07:17:28;;;;;;;;;;;18.50;94.80;;;;;;4978157;28;19934;-77
2023/08/01 07:19:54;;;;;;;;;;;18.40;94.80;;;;;;4980413;28;19937;-76
2023/08/01 07:22:22;;;;;;;;;;;18.40;94.90;;;;;;4981937;28;20418;-75
2023/08/01 07:24:53;;;;;;;;;;;18.40;95.10;;;;;;4981215;28;20487;-76
2023/08/01 07:27:19;;;;;;;;;;;18.30;95.10;;;;;;4979469;28;19936;-76
2023/08/01 07:29:46;;;;;;;;;;;18.40;95.30;;;;;;4978586;28;19934;-76
2023/08/01 07:32:12;;;;;;;;;;;18.30;95.30;;;;;;4974282;28;19936;-77
2023/08/01 07:34:39;;;;;;;;;;;18.40;95.40;;;;;;4979318;28;19929;-74
2023/08/01 07:37:06;;;;;;;;;;;18.40;95.50;;;;;;4982021;28;19926;-74
2023/08/01 07:39:34;;;;;;;;;;;18.30;95.70;;;;;;4977997;28;19934;-75
2023/08/01 07:42:01;;;;;;;;;;;18.40;95.90;;;;;;4979444;28;19929;-74
2023/08/01 07:44:28;;;;;;;;;;;18.30;95.90;;;;;;4974745;28;19934;-74
2023/08/01 07:46:55;;;;;;;;;;;18.30;96.00;;;;;;4979969;28;20307;-73
2023/08/01 07:49:22;;;;;;;;;;;18.30;96.00;;;;;;4976738;28;20763;-75
2023/08/01 07:51:48;;;;;;;;;;;18.30;96.10;;;;;;4977204;28;19930;-75
2023/08/01 07:54:15;;;;;;;;;;;18.30;96.10;;;;;;4977927;28;19952;-74
2023/08/01 07:56:43;;;;;;;;;;;18.30;96.20;;;;;;4977618;28;20018;-75
2023/08/01 07:59:10;;;;;;;;;;;18.30;96.50;;;;;;4982247;28;19926;-74
2023/08/01 08:01:37;;;;;;;;;;;18.30;96.10;;;;;;4980969;28;19933;-73
2023/08/01 08:04:03;;;;;;;;;;;18.30;96.20;;;;;;4982999;28;19937;-74
2023/08/01 08:06:31;;;;;;;;;;;18.30;96.10;;;;;;4976120;28;19934;-75
2023/08/01 08:08:57;;;;;;;;;;;18.30;96.10;;;;;;4984644;28;19930;-73
2023/08/01 08:11:24;;;;;;;;;;;18.30;96.10;;;;;;4983105;28;19930;-74
2023/08/01 08:13:52;;;;;;;;;;;18.30;96.10;;;;;;4982532;28;19976;-74
2023/08/01 08:16:18;;;;;;;;;;;18.30;96.20;;;;;;4980306;28;19941;-74
2023/08/01 08:18:45;;;;;;;;;;;18.30;96.30;;;;;;4983023;28;20340;-74
2023/08/01 08:21:11;;;;;;;;;;;18.30;96.30;;;;;;4978516;28;20498;-75
2023/08/01 08:23:38;;;;;;;;;;;18.30;96.40;;;;;;4979656;28;20316;-75
2023/08/01 08:26:06;;;;;;;;;;;18.30;96.40;;;;;;4983837;28;19929;-74
2023/08/01 08:28:34;;;;;;;;;;;18.30;96.50;;;;;;4982067;28;20433;-75
2023/08/01 08:31:03;;;;;;;;;;;18.30;96.50;;;;;;4982151;28;19930;-74
2023/08/01 08:33:29;;;;;;;;;;;18.30;96.40;;;;;;4982704;28;19941;-74
2023/08/01 08:35:56;;;;;;;;;;;18.30;96.50;;;;;;4982509;28;19933;-74
2023/08/01 08:38:23;;;;;;;;;;;18.30;96.50;;;;;;4983127;28;19930;-74
2023/08/01 08:40:53;;;;;;;;;;;18.30;96.60;;;;;;4976427;28;19933;-74
2023/08/01 08:43:20;;;;;;;;;;;18.30;96.70;;;;;;4977381;28;19929;-75
2023/08/01 08:45:46;;;;;;;;;;;18.40;96.80;;;;;;4978586;28;19930;-76
2023/08/01 08:48:18;;;;;;;;;;;18.30;96.80;;;;;;4980120;28;20419;-76
2023/08/01 08:50:46;;;;;;;;;;;18.30;96.80;;;;;;4977064;28;20653;-76
2023/08/01 08:53:12;;;;;;;;;;;18.30;96.80;;;;;;4978174;28;20303;-75
2023/08/01 08:55:40;;;;;;;;;;;18.30;96.80;;;;;;4975900;28;19930;-76
2023/08/01 08:58:06;;;;;;;;;;;18.30;96.70;;;;;;4974924;28;20339;-77
2023/08/01 09:00:33;;;;;;;;;;;18.30;96.80;;;;;;4977632;28;19933;-75
2023/08/01 09:02:59;;;;;;;;;;;18.40;96.80;;;;;;4983653;28;19929;-73
2023/08/01 09:05:32;;;;;;;;;;;18.40;96.80;;;;;;4983784;28;19927;-75
2023/08/01 09:08:00;;;;;;;;;;;18.40;96.80;;;;;;4987257;28;19930;-75
2023/08/01 09:10:26;;;;;;;;;;;18.40;96.80;;;;;;4980211;28;19930;-74
2023/08/01 09:12:53;;;;;;;;;;;18.40;96.90;;;;;;4981156;28;19930;-75
2023/08/01 09:15:19;;;;;;;;;;;18.40;97.00;;;;;;4983744;28;19929;-75
2023/08/01 09:17:50;;;;;;;;;;;18.40;97.10;;;;;;4985296;28;19930;-77
2023/08/01 09:20:17;;;;;;;;;;;18.40;97.30;;;;;;4979052;28;19945;-74
2023/08/01 09:22:45;;;;;;;;;;;18.50;97.50;;;;;;4986617;28;19937;-74
2023/08/01 09:25:12;;;;;;;;;;;18.50;97.60;;;;;;4984544;28;21050;-74
2023/08/01 09:27:39;;;;;;;;;;;18.50;97.70;;;;;;4983205;28;19941;-74
2023/08/01 09:30:07;;;;;;;;;;;18.50;97.90;;;;;;4979634;28;19934;-74
2023/08/01 09:32:34;;;;;;;;;;;18.60;98.10;;;;;;4986755;28;19926;-75
2023/08/01 09:35:01;;;;;;;;;;;18.60;98.40;;;;;;4984629;28;20043;-74
2023/08/01 09:37:27;;;;;;;;;;;18.60;98.40;;;;;;4990156;28;19930;-74
2023/08/01 09:39:56;;;;;;;;;;;18.70;98.40;;;;;;4984762;28;19930;-75
2023/08/01 09:42:22;;;;;;;;;;;18.70;98.30;;;;;;4981036;28;19936;-75
2023/08/01 09:44:49;;;;;;;;;;;18.80;98.20;;;;;;4983661;28;19934;-74
2023/08/01 09:47:17;;;;;;;;;;;18.90;98.30;;;;;;4982802;28;19941;-75
2023/08/01 09:49:49;;;;;;;;;;;18.90;98.40;;;;;;4984072;28;19984;-75
2023/08/01 09:52:15;;;;;;;;;;;19.00;98.30;;;;;;4978040;28;19940;-75
2023/08/01 09:54:42;;;;;;;;;;;19.00;98.10;;;;;;4985164;28;19937;-75
2023/08/01 09:57:11;;;;;;;;;;;19.00;98.00;;;;;;4985264;28;20009;-74
2023/08/01 09:59:38;;;;;;;;;;;19.10;98.10;;;;;;4986271;28;20400;-74
2023/08/01 10:02:05;;;;;;;;;;;19.20;97.90;;;;;;4981202;28;19977;-76
2023/08/01 10:04:33;;;;;;;;;;;19.20;97.80;;;;;;4983222;28;20289;-75
2023/08/01 10:07:00;;;;;;;;;;;19.30;97.60;;;;;;4986243;28;19934;-73
2023/08/01 10:09:27;;;;;;;;;;;19.40;97.40;;;;;;4984309;28;19937;-74
2023/08/01 10:11:55;;;;;;;;;;;19.30;97.10;;;;;;4984765;28;19930;-75
2023/08/01 10:14:23;;;;;;;;;;;19.40;97.00;;;;;;4981526;28;19940;-75
2023/08/01 10:16:50;;;;;;;;;;;19.40;96.80;;;;;;4987710;28;19937;-75
2023/08/01 10:19:17;;;;;;;;;;;19.40;96.70;;;;;;4979924;28;19930;-76
2023/08/01 10:21:45;;;;;;;;;;;19.40;96.50;;;;;;4980237;28;20344;-75
2023/08/01 10:24:12;;;;;;;;;;;19.40;96.50;;;;;;4981196;28;19930;-76
2023/08/01 10:26:39;;;;;;;;;;;19.50;96.50;;;;;;4985038;28;19925;-75
2023/08/01 10:29:05;;;;;;;;;;;19.50;96.40;;;;;;4984525;28;19930;-75
2023/08/01 10:31:33;;;;;;;;;;;19.60;96.20;;;;;;4983120;28;19930;-75
2023/08/01 10:34:07;;;;;;;;;;;19.60;95.90;;;;;;4982936;28;19938;-75
2023/08/01 10:36:33;;;;;;;;;;;19.70;95.60;;;;;;4977844;28;20284;-75
2023/08/01 10:39:01;;;;;;;;;;;19.80;95.40;;;;;;4984183;28;19941;-76
2023/08/01 10:41:29;;;;;;;;;;;19.80;95.10;;;;;;4982448;28;19941;-75
2023/08/01 10:44:05;;;;;;;;;;;19.90;94.90;;;;;;4983303;28;19930;-76
2023/08/01 10:46:46;;;;;;;;;;;19.90;94.60;;;;;;4980084;28;19937;-76
2023/08/01 10:49:13;;;;;;;;;;;19.90;94.20;;;;;;4983281;28;19930;-75
2023/08/01 10:51:39;;;;;;;;;;;20.00;93.90;;;;;;4981867;28;19930;-75
2023/08/01 10:54:06;;;;;;;;;;;20.00;93.50;;;;;;4975005;28;20718;-76
2023/08/01 10:56:33;;;;;;;;;;;20.00;92.90;;;;;;4984478;28;19936;-74
2023/08/01 10:58:59;;;;;;;;;;;20.00;92.80;;;;;;4982030;28;19936;-75
2023/08/01 11:01:28;;;;;;;;;;;20.00;92.80;;;;;;4981662;28;19941;-74
2023/08/01 11:03:55;;;;;;;;;;;20.00;92.80;;;;;;4983754;28;20150;-75
2023/08/01 11:06:22;;;;;;;;;;;20.00;92.60;;;;;;4980059;28;19930;-74
2023/08/01 11:08:49;;;;;;;;;;;20.00;92.30;;;;;;4983971;28;19937;-76
2023/08/01 11:11:15;;;;;;;;;;;20.10;92.30;;;;;;4979803;28;19929;-74
2023/08/01 11:13:42;;;;;;;;;;;20.10;91.80;;;;;;4981108;28;19933;-75
2023/08/01 11:16:11;;;;;;;;;;;20.10;91.70;;;;;;4981977;28;19930;-74
2023/08/01 11:18:42;;;;;;;;;;;20.10;91.20;;;;;;4986248;28;19930;-74
2023/08/01 11:21:10;;;;;;;;;;;20.20;91.10;;;;;;4978839;28;19930;-74
2023/08/01 11:23:37;;;;;;;;;;;20.20;90.70;;;;;;4982531;28;19930;-74
2023/08/01 11:26:07;;;;;;;;;;;20.30;90.30;;;;;;4979159;28;20355;-74
2023/08/01 11:28:33;;;;;;;;;;;20.30;90.00;;;;;;4978722;28;19937;-74
2023/08/01 11:31:00;;;;;;;;;;;20.30;90.00;;;;;;4976834;28;20380;-75
2023/08/01 11:33:27;;;;;;;;;;;20.40;89.20;;;;;;4979692;28;19964;-74
2023/08/01 11:35:56;;;;;;;;;;;20.40;88.90;;;;;;4981682;28;19929;-74
2023/08/01 11:38:25;;;;;;;;;;;20.40;89.00;;;;;;4979399;28;19934;-74
2023/08/01 11:40:52;;;;;;;;;;;20.50;89.00;;;;;;4982559;28;20036;-74
2023/08/01 11:43:18;;;;;;;;;;;20.50;88.50;;;;;;4976689;28;19930;-74
2023/08/01 11:45:51;;;;;;;;;;;20.50;88.50;;;;;;4981413;28;19934;-73
2023/08/01 11:48:18;;;;;;;;;;;20.50;87.80;;;;;;4982040;28;19936;-74
2023/08/01 11:50:45;;;;;;;;;;;20.60;88.10;;;;;;4979505;28;20012;-74
2023/08/01 11:53:18;;;;;;;;;;;20.60;87.80;;;;;;4974495;28;19965;-75
2023/08/01 11:55:46;;;;;;;;;;;20.70;86.30;;;;;;4980764;28;19936;-74
2023/08/01 11:58:14;;;;;;;;;;;20.80;86.20;;;;;;4983522;28;19936;-73
2023/08/01 12:00:41;;;;;;;;;;;20.90;85.50;;;;;;4981091;28;20017;-74
2023/08/01 12:03:12;;;;;;;;;;;20.90;83.40;;;;;;4983606;28;20056;-74
2023/08/01 12:05:41;;;;;;;;;;;21.10;83.30;;;;;;4976756;28;19929;-75
2023/08/01 12:08:11;;;;;;;;;;;21.00;83.30;;;;;;4975189;28;19936;-72
2023/08/01 12:10:38;;;;;;;;;;;21.10;83.90;;;;;;4978763;28;19992;-73
2023/08/01 12:13:06;;;;;;;;;;;21.10;83.60;;;;;;4969881;28;19930;-74
2023/08/01 12:15:32;;;;;;;;;;;21.20;82.20;;;;;;4974103;28;19941;-75
2023/08/01 12:17:59;;;;;;;;;;;21.30;83.60;;;;;;4983766;28;19936;-74
2023/08/01 12:20:26;;;;;;;;;;;21.30;82.70;;;;;;4980135;28;19940;-74
2023/08/01 12:22:52;;;;;;;;;;;21.30;81.60;;;;;;4982882;28;19930;-76
2023/08/01 12:25:19;;;;;;;;;;;21.40;80.80;;;;;;4980705;28;19930;-72
2023/08/01 12:27:45;;;;;;;;;;;21.40;80.10;;;;;;4978250;28;19942;-76
2023/08/01 12:30:13;;;;;;;;;;;21.50;79.40;;;;;;4980372;28;20395;-74
2023/08/01 12:32:40;;;;;;;;;;;21.50;79.70;;;;;;4983650;28;20422;-74
2023/08/01 12:35:07;;;;;;;;;;;21.60;80.50;;;;;;4982784;28;20571;-75
2023/08/01 12:37:33;;;;;;;;;;;21.60;80.50;;;;;;4986654;28;19941;-75
2023/08/01 12:40:00;;;;;;;;;;;21.70;78.90;;;;;;4986921;28;19934;-75
2023/08/01 12:42:26;;;;;;;;;;;21.70;79.00;;;;;;4987375;28;20335;-75
2023/08/01 12:44:53;;;;;;;;;;;21.70;78.90;;;;;;4984248;28;19930;-74
2023/08/01 12:47:21;;;;;;;;;;;21.80;77.20;;;;;;4982611;28;19929;-75
2023/08/01 12:49:49;;;;;;;;;;;21.80;77.50;;;;;;4983590;28;19929;-74
2023/08/01 12:52:22;;;;;;;;;;;21.90;76.10;;;;;;4981856;28;19934;-75
2023/08/01 12:54:49;;;;;;;;;;;21.90;76.60;;;;;;4986057;28;20978;-75
2023/08/01 12:57:15;;;;;;;;;;;21.90;74.30;;;;;;4981243;28;20163;-77
2023/08/01 12:59:42;;;;;;;;;;;21.90;75.10;;;;;;4977746;28;19930;-74
2023/08/01 13:02:09;;;;;;;;;;;21.90;74.70;;;;;;4982690;28;19930;-74
2023/08/01 13:04:37;;;;;;;;;;;21.90;74.00;;;;;;4981779;28;19936;-75
2023/08/01 13:07:03;;;;;;;;;;;22.00;74.30;;;;;;4985920;28;19934;-74
2023/08/01 13:09:30;;;;;;;;;;;22.00;75.10;;;;;;4984494;28;20280;-74
2023/08/01 13:11:57;;;;;;;;;;;22.00;75.20;;;;;;4981768;28;19930;-74
2023/08/01 13:14:24;;;;;;;;;;;22.00;75.30;;;;;;4984577;28;20019;-74
2023/08/01 13:16:50;;;;;;;;;;;22.10;74.00;;;;;;4981758;28;20452;-75
2023/08/01 13:19:17;;;;;;;;;;;22.20;73.40;;;;;;4984776;28;19929;-76
2023/08/01 13:21:45;;;;;;;;;;;22.20;73.30;;;;;;4980734;28;19930;-74
2023/08/01 13:24:11;;;;;;;;;;;22.30;73.00;;;;;;4986004;28;19930;-77
2023/08/01 13:26:38;;;;;;;;;;;22.30;71.90;;;;;;4982312;28;19929;-74
2023/08/01 13:29:05;;;;;;;;;;;22.40;71.10;;;;;;4982840;28;19930;-75
2023/08/01 13:31:31;;;;;;;;;;;22.50;69.60;;;;;;4985751;28;19929;-75
2023/08/01 13:33:58;;;;;;;;;;;22.50;70.50;;;;;;4986280;28;19930;-75
2023/08/01 13:36:24;;;;;;;;;;;22.50;70.00;;;;;;4980007;28;20690;-75
2023/08/01 13:38:52;;;;;;;;;;;22.60;68.80;;;;;;4985622;28;19933;-74
2023/08/01 13:41:19;;;;;;;;;;;22.70;69.40;;;;;;4985842;28;19964;-75
2023/08/01 13:43:45;;;;;;;;;;;22.60;69.50;;;;;;4985502;28;19926;-75
2023/08/01 13:46:14;;;;;;;;;;;22.70;70.00;;;;;;4981660;28;19942;-75
2023/08/01 13:48:41;;;;;;;;;;;22.70;68.40;;;;;;4979830;28;19933;-75
2023/08/01 13:51:07;;;;;;;;;;;22.70;69.80;;;;;;4979858;28;19929;-82
2023/08/01 13:53:34;;;;;;;;;;;22.80;69.50;;;;;;4980011;28;19937;-82
2023/08/01 13:56:02;;;;;;;;;;;22.80;69.60;;;;;;4981921;28;19965;-80
2023/08/01 13:58:28;;;;;;;;;;;22.80;69.80;;;;;;4985000;28;19937;-79
2023/08/01 14:00:55;;;;;;;;;;;22.90;68.00;;;;;;4980936;28;19930;-81
2023/08/01 14:03:22;;;;;;;;;;;23.00;68.00;;;;;;4981190;28;20625;-78
2023/08/01 14:05:48;;;;;;;;;;;22.90;67.00;;;;;;4978912;28;19938;-77
2023/08/01 14:08:15;;;;;;;;;;;23.00;65.90;;;;;;4983910;28;20420;-81
2023/08/01 14:10:43;;;;;;;;;;;23.10;66.20;;;;;;4979606;28;19937;-79
2023/08/01 14:13:11;;;;;;;;;;;23.10;65.80;;;;;;4982241;28;19965;-79
2023/08/01 14:15:37;;;;;;;;;;;23.10;64.80;;;;;;4983247;28;19991;-79